Seabrook, SC (29914)

11:10 AM EST on February 14, 2016 (GMT -0500)
Beaufort Marine Corps Air Station | | Change Station
CLOSE
Current Station
Airport
Location: Beaufort MCAS,
Elevation: 39 ft
Nearby Weather Stations

Elev 39 ft 32.48 °N, 80.72 °W | Updated 14 minutes ago

Clear
Clear
39 °F
Feels Like 32 °F
N
12
Wind Variable Wind from ENE
Gusts 20 mph

Today
High -- | Low -- °F
--% Chance of Precip.
Yesterday
High -- | Low -- °F
Precip. -- in
Pressure 30.48 in
Visibility 10.0 miles
Clouds Clear
Windchill 32 °F
Dew Point 16 °F
Humidity 39%
Rainfall 0.00 in
Snow Depth Not available.
7:07 AM 6:07 PM
Waxing Crescent, 43% visible
METAR KNBC 141556Z AUTO 07010G17KT 10SM CLR 04/M09 A3048 RMK AO2 SLP321 T00391089
Pressure 30.48 in
Visibility 10.0 miles
Clouds Clear
Windchill 32 °F
Dew Point 16 °F
Humidity 39%
Rainfall 0.00 in
Snow Depth Not available.
7:07 AM 6:07 PM
Waxing Crescent, 43% visible
METAR KNBC 141556Z AUTO 07010G17KT 10SM CLR 04/M09 A3048 RMK AO2 SLP321 T00391089

10-Day Weather Forecast

Almanac

Astronomy

Feb. 14, 2016 Rise Set
Actual Time
Civil Twilight
Nautical Twilight
Astronomical Twilight
Moon
Length of Visible Light
Length of Day
Tomorrow will be .
, % of the Moon is Illuminated

Today's Extremes

State Highs State Lows

Community

WunderPhotos

Upload Photos

1,892,819 photos uploaded!

WunderBlog® & News

Nearby

Air Quality

  Air Quality AQ Index Pollutant
Not available.

Snow Depth

Station Depth Elevation

Earthquake Activity

City Distance Mag. Time & Date
Minimum magnitude displayed is 2.5.

Coastal Water Temperatures

Place Temperature

Stations

Nearby Weather Stations

Station Location Temp. Windchill Dew Point Humidity Wind Precip. Elev Updated Type
                   

Watches & Warnings

There are currently no watches in effect.